createdAt,value
2023-02-15T00:02:15.465Z,101448.54
2023-02-15T00:04:47.472Z,101439.14
2023-02-15T00:07:20.349Z,101435.65
2023-02-15T00:09:51.996Z,101432.35
2023-02-15T00:12:23.608Z,101436.88
2023-02-15T00:14:55.201Z,101432.70
2023-02-15T00:17:30.233Z,101432.16
2023-02-15T00:20:01.848Z,101433.54
2023-02-15T00:22:33.377Z,101433.84
2023-02-15T00:25:07.563Z,101431.77
2023-02-15T00:27:39.137Z,101427.05
2023-02-15T00:30:11.191Z,101424.61
2023-02-15T00:32:42.814Z,101422.21
2023-02-15T00:35:14.446Z,101414.56
2023-02-15T00:37:46.084Z,101417.52
2023-02-15T00:40:17.796Z,101412.13
2023-02-15T00:42:49.465Z,101409.49
2023-02-15T00:45:22.314Z,101408.07
2023-02-15T00:47:53.906Z,101409.13
2023-02-15T00:50:26.054Z,101410.48
2023-02-15T00:52:57.643Z,101407.33
2023-02-15T00:55:29.215Z,101403.50
2023-02-15T00:58:00.866Z,101402.63
2023-02-15T01:00:32.466Z,101402.80
2023-02-15T01:03:04.188Z,101400.74
2023-02-15T01:05:36.070Z,101393.97
2023-02-15T01:08:07.985Z,101391.38
2023-02-15T01:10:40.088Z,101395.08
2023-02-15T01:13:11.798Z,101391.13
2023-02-15T01:15:44.498Z,101390.95
2023-02-15T01:18:16.101Z,101389.36
2023-02-15T01:20:48.546Z,101385.20
2023-02-15T01:23:22.175Z,101383.48
2023-02-15T01:25:53.677Z,101380.20
2023-02-15T01:28:25.235Z,101377.73
2023-02-15T01:30:56.944Z,101372.33
2023-02-15T01:33:28.557Z,101371.45
2023-02-15T01:36:00.618Z,101365.86
2023-02-15T01:38:32.988Z,101368.77
2023-02-15T01:41:23.492Z,101370.32
2023-02-15T01:43:58.160Z,101369.96
2023-02-15T01:46:41.402Z,101368.89
2023-02-15T01:49:16.614Z,101368.52
2023-02-15T01:51:51.124Z,101364.73
2023-02-15T01:54:27.186Z,101362.49
2023-02-15T01:57:03.607Z,101357.11
2023-02-15T01:59:39.079Z,101362.91
2023-02-15T02:02:16.024Z,101359.27
2023-02-15T02:04:58.945Z,101359.58
2023-02-15T02:07:39.278Z,101354.32
2023-02-15T02:10:15.028Z,101352.89
2023-02-15T02:12:48.653Z,101350.77
2023-02-15T02:15:23.373Z,101351.45
2023-02-15T02:18:25.127Z,101350.36
2023-02-15T02:21:18.145Z,101353.48
2023-02-15T02:24:09.536Z,101346.86
2023-02-15T02:27:02.242Z,101343.56
2023-02-15T02:29:46.371Z,101337.10
2023-02-15T02:32:57.159Z,101329.95
2023-02-15T02:35:44.191Z,101332.06
2023-02-15T02:38:38.894Z,101328.56
2023-02-15T02:41:25.425Z,101328.21
2023-02-15T02:44:05.888Z,101326.60
2023-02-15T02:46:59.664Z,101320.66
2023-02-15T02:49:33.901Z,101322.20
2023-02-15T02:52:25.734Z,101320.98
2023-02-15T02:54:57.559Z,101325.15
2023-02-15T02:57:30.764Z,101322.85
2023-02-15T03:00:06.296Z,101320.92
2023-02-15T03:02:44.354Z,101323.34
2023-02-15T03:09:35.888Z,101319.16
2023-02-15T03:12:07.746Z,101320.36
2023-02-15T03:14:42.513Z,101322.46
2023-02-15T03:17:15.200Z,101315.85
2023-02-15T03:19:49.509Z,101310.47
2023-02-15T03:23:02.780Z,101307.67
2023-02-15T03:25:35.601Z,101311.48
2023-02-15T03:28:16.132Z,101309.20
2023-02-15T03:30:52.891Z,101302.41
2023-02-15T03:33:26.366Z,101302.22
2023-02-15T03:36:10.031Z,101300.98
2023-02-15T03:38:51.322Z,101300.98
2023-02-15T03:41:27.165Z,101299.06
2023-02-15T03:44:08.018Z,101297.15
2023-02-15T03:46:55.791Z,101293.33
2023-02-15T03:50:02.300Z,101295.23
2023-02-15T03:52:35.726Z,101291.06
2023-02-15T03:55:07.635Z,101290.54
2023-02-15T03:57:57.715Z,101291.43
2023-02-15T04:00:50.628Z,101288.83
2023-02-15T04:09:44.580Z,101280.21
2023-02-15T04:12:16.338Z,101283.89
2023-02-15T04:15:06.703Z,101286.01
2023-02-15T04:17:39.243Z,101286.18
2023-02-15T04:20:29.784Z,101285.49
2023-02-15T04:23:20.124Z,101279.42
2023-02-15T04:25:51.749Z,101273.87
2023-02-15T04:28:23.456Z,101271.95
2023-02-15T04:30:55.317Z,101273.50
2023-02-15T04:33:27.502Z,101267.90
2023-02-15T04:35:59.437Z,101275.71
2023-02-15T04:38:31.299Z,101277.61
2023-02-15T04:41:03.161Z,101272.91
2023-02-15T04:43:34.783Z,101273.09
2023-02-15T04:46:06.453Z,101267.36
2023-02-15T04:48:38.800Z,101267.35
2023-02-15T04:51:10.740Z,101260.73
2023-02-15T04:53:42.787Z,101257.27
2023-02-15T04:56:14.605Z,101255.70
2023-02-15T04:58:46.339Z,101257.97
2023-02-15T05:01:18.953Z,101260.23
2023-02-15T05:03:51.082Z,101256.57
2023-02-15T05:06:22.785Z,101255.70
2023-02-15T05:08:54.842Z,101254.33
2023-02-15T05:11:27.365Z,101251.73
2023-02-15T05:13:59.176Z,101246.52
2023-02-15T05:16:31.170Z,101246.17
2023-02-15T05:19:03.102Z,101246.02
2023-02-15T05:21:35.180Z,101248.27
2023-02-15T05:24:26.899Z,101246.88
2023-02-15T05:27:17.200Z,101247.21
2023-02-15T05:29:48.957Z,101244.94
2023-02-15T05:32:20.838Z,101240.25
2023-02-15T05:34:52.565Z,101243.52
2023-02-15T05:37:24.329Z,101240.55
2023-02-15T05:39:56.047Z,101239.15
2023-02-15T05:42:27.738Z,101235.67
2023-02-15T05:44:59.393Z,101236.55
2023-02-15T05:47:31.183Z,101240.70
2023-02-15T05:50:05.641Z,101236.71
2023-02-15T05:52:37.339Z,101237.95
2023-02-15T05:55:12.612Z,101233.94
2023-02-15T05:57:44.505Z,101234.66
2023-02-15T06:00:17.062Z,101232.39
2023-02-15T06:02:48.844Z,101228.90
2023-02-15T06:05:20.557Z,101228.89
2023-02-15T06:07:52.187Z,101225.91
2023-02-15T06:10:23.906Z,101225.05
2023-02-15T06:12:56.941Z,101221.40
2023-02-15T06:15:28.665Z,101222.42
2023-02-15T06:18:00.394Z,101220.69
2023-02-15T06:20:35.166Z,101223.64
2023-02-15T06:23:09.650Z,101221.73
2023-02-15T06:25:41.850Z,101221.90
2023-02-15T06:28:14.202Z,101221.55
2023-02-15T06:30:45.998Z,101219.81
2023-02-15T06:33:19.892Z,101225.21
2023-02-15T06:35:53.836Z,101219.83
2023-02-15T06:38:28.121Z,101221.05
2023-02-15T06:40:59.885Z,101222.11
2023-02-15T06:43:31.745Z,101219.84
2023-02-15T06:46:03.932Z,101221.76
2023-02-15T06:48:38.732Z,101224.23
2023-02-15T06:51:10.425Z,101221.11
2023-02-15T06:53:44.017Z,101221.47
2023-02-15T06:56:15.657Z,101214.86
2023-02-15T06:58:47.652Z,101211.20
2023-02-15T07:01:20.006Z,101213.13
2023-02-15T07:03:51.835Z,101206.16
2023-02-15T07:06:23.597Z,101204.09
2023-02-15T07:08:55.464Z,101202.36
2023-02-15T07:11:45.880Z,101203.95
2023-02-15T07:14:17.745Z,101203.44
2023-02-15T07:16:49.978Z,101207.44
2023-02-15T07:19:21.828Z,101203.95
2023-02-15T07:21:53.513Z,101199.08
2023-02-15T07:24:25.431Z,101196.30
2023-02-15T07:26:58.752Z,101192.31
2023-02-15T07:29:30.438Z,101191.12
2023-02-15T07:32:02.165Z,101189.05
2023-02-15T07:34:33.906Z,101184.86
2023-02-15T07:37:05.688Z,101182.98
2023-02-15T07:39:37.438Z,101182.83
2023-02-15T07:42:09.188Z,101186.00
2023-02-15T07:44:40.844Z,101191.20
2023-02-15T07:47:13.210Z,101184.61
2023-02-15T07:49:45.685Z,101180.09
2023-02-15T07:52:17.458Z,101177.33
2023-02-15T07:54:49.199Z,101173.16
2023-02-15T07:57:20.956Z,101173.00
2023-02-15T07:59:52.612Z,101169.88
2023-02-15T08:02:24.475Z,101166.77
2023-02-15T08:04:56.244Z,101166.94
2023-02-15T08:07:28.098Z,101162.06
2023-02-15T08:10:00.741Z,101156.34
2023-02-15T08:12:32.557Z,101153.23
2023-02-15T08:15:05.638Z,101147.69
2023-02-15T08:17:38.404Z,101148.56
2023-02-15T08:20:10.976Z,101144.25
2023-02-15T08:22:42.638Z,101139.92
2023-02-15T08:25:14.432Z,101139.77
2023-02-15T08:27:46.423Z,101136.48
2023-02-15T08:30:18.643Z,101139.79
2023-02-15T08:32:50.562Z,101136.83
2023-02-15T08:35:22.348Z,101138.04
2023-02-15T08:37:53.968Z,101134.39
2023-02-15T08:40:25.656Z,101134.05
2023-02-15T08:42:57.416Z,101134.38
2023-02-15T08:45:29.085Z,101133.84
2023-02-15T08:48:00.942Z,101129.83
2023-02-15T08:50:32.791Z,101132.95
2023-02-15T08:53:05.036Z,101132.25
2023-02-15T08:55:36.636Z,101128.95
2023-02-15T08:58:08.213Z,101128.96
2023-02-15T09:00:40.190Z,101126.69
2023-02-15T09:03:12.543Z,101124.97
2023-02-15T09:05:44.670Z,101122.01
2023-02-15T09:08:16.934Z,101116.77
2023-02-15T09:10:49.031Z,101113.10
2023-02-15T09:13:22.005Z,101110.13
2023-02-15T09:16:00.919Z,101109.96
2023-02-15T09:18:36.798Z,101109.42
2023-02-15T09:21:19.997Z,101105.77
2023-02-15T09:23:53.943Z,101109.45
2023-02-15T09:26:26.892Z,101107.02
2023-02-15T09:29:02.137Z,101105.98
2023-02-15T09:31:39.080Z,101101.64
2023-02-15T09:34:12.831Z,101099.73
2023-02-15T09:36:44.483Z,101096.43
2023-02-15T09:39:22.104Z,101093.64
2023-02-15T09:41:56.510Z,101092.08
2023-02-15T09:44:43.632Z,101090.54
2023-02-15T09:47:46.537Z,101092.82
2023-02-15T09:50:36.305Z,101086.02
2023-02-15T09:53:24.687Z,101085.33
2023-02-15T09:56:21.198Z,101085.19
2023-02-15T09:58:54.030Z,101082.92
2023-02-15T10:01:31.598Z,101078.94
2023-02-15T10:04:16.620Z,101079.98
2023-02-15T10:07:08.291Z,101079.27
2023-02-15T10:10:01.844Z,101075.79
2023-02-15T10:12:59.045Z,101070.75
2023-02-15T10:16:22.697Z,101069.71
2023-02-15T10:19:09.954Z,101073.20
2023-02-15T10:22:16.930Z,101070.96
2023-02-15T10:24:58.306Z,101067.48
2023-02-15T10:27:38.124Z,101066.77
2023-02-15T10:30:14.026Z,101065.91
2023-02-15T10:33:02.324Z,101064.52
2023-02-15T10:36:03.644Z,101061.59
2023-02-15T10:38:43.274Z,101060.70
2023-02-15T10:41:35.594Z,101056.71
2023-02-15T10:44:34.449Z,101059.48
2023-02-15T10:47:44.607Z,101055.32
2023-02-15T10:50:22.765Z,101048.19
2023-02-15T10:53:49.106Z,101045.91
2023-02-15T10:56:32.164Z,101033.54
2023-02-15T10:59:36.198Z,101032.66
2023-02-15T11:02:20.371Z,101033.36
2023-02-15T11:04:55.515Z,101034.41
2023-02-15T11:07:34.807Z,101031.61
2023-02-15T11:10:36.906Z,101028.83
2023-02-15T11:13:18.190Z,101022.55
2023-02-15T11:15:58.932Z,101020.77
2023-02-15T11:18:37.374Z,101019.38
2023-02-15T11:21:27.780Z,101009.44
2023-02-15T11:24:01.662Z,101008.36
2023-02-15T11:26:43.839Z,101009.21
2023-02-15T11:29:53.875Z,101007.48
2023-02-15T11:32:35.988Z,101006.60
2023-02-15T11:35:13.789Z,101003.44
2023-02-15T11:37:51.259Z,100996.64
2023-02-15T11:40:27.971Z,100995.05
2023-02-15T11:43:05.500Z,100995.23
2023-02-15T11:45:37.936Z,100984.90
2023-02-15T11:48:15.457Z,100980.87
2023-02-15T11:50:47.535Z,100983.45
2023-02-15T11:53:22.696Z,100981.17
2023-02-15T11:55:59.232Z,100979.95
2023-02-15T11:58:53.823Z,100977.13
2023-02-15T12:01:28.261Z,100975.36
2023-02-15T12:04:33.603Z,100972.05
